createdAt,value
2019-04-10T00:00:23.145Z,12.20
2019-04-10T00:02:51.858Z,12.62
2019-04-10T00:05:20.477Z,12.91
2019-04-10T00:07:50.022Z,13.14
2019-04-10T00:10:19.390Z,13.11
2019-04-10T00:12:48.096Z,13.17
2019-04-10T00:15:18.232Z,13.29
2019-04-10T00:17:47.238Z,13.13
2019-04-10T00:20:16.310Z,13.05
2019-04-10T00:22:44.958Z,13.30
2019-04-10T00:25:14.910Z,12.62
2019-04-10T00:27:43.567Z,12.70
2019-04-10T00:30:13.202Z,12.75
2019-04-10T00:32:41.931Z,12.89
2019-04-10T00:35:10.813Z,12.96
2019-04-10T00:37:39.541Z,12.87
2019-04-10T00:40:08.822Z,13.07
2019-04-10T00:42:37.546Z,13.09
2019-04-10T00:45:09.177Z,13.02
2019-04-10T00:47:37.786Z,13.03
2019-04-10T00:50:06.692Z,13.15
2019-04-10T00:52:35.331Z,13.18
2019-04-10T00:55:05.647Z,13.10
2019-04-10T00:57:34.377Z,13.23
2019-04-10T01:00:03.001Z,13.07
2019-04-10T01:02:32.375Z,13.20
2019-04-10T01:05:01.069Z,12.76
2019-04-10T01:07:37.592Z,12.58
2019-04-10T01:10:00.148Z,12.77
2019-04-10T01:12:28.775Z,12.21
2019-04-10T01:14:58.175Z,12.36
2019-04-10T01:17:26.942Z,12.83
2019-04-10T01:19:56.519Z,12.92
2019-04-10T01:22:25.376Z,13.15
2019-04-10T01:24:54.433Z,13.16
2019-04-10T01:27:23.665Z,13.08
2019-04-10T01:29:52.357Z,13.15
2019-04-10T01:32:21.114Z,13.23
2019-04-10T01:34:49.777Z,13.10
2019-04-10T01:37:18.746Z,13.10
2019-04-10T01:39:48.555Z,12.97
2019-04-10T01:42:17.232Z,12.41
2019-04-10T01:44:46.767Z,12.88
2019-04-10T01:47:15.720Z,13.10
2019-04-10T01:49:44.366Z,12.71
2019-04-10T01:52:13.050Z,12.52
2019-04-10T01:54:44.567Z,12.37
2019-04-10T01:57:13.118Z,13.05
2019-04-10T01:59:42.424Z,12.79
2019-04-10T02:02:31.616Z,12.43
2019-04-10T02:05:00.656Z,12.42
2019-04-10T02:07:29.924Z,12.61
2019-04-10T02:09:59.509Z,12.55
2019-04-10T02:12:28.489Z,12.74
2019-04-10T02:14:57.114Z,12.83
2019-04-10T02:17:25.770Z,12.70
2019-04-10T02:19:54.632Z,13.05
2019-04-10T02:22:24.405Z,13.16
2019-04-10T02:24:53.536Z,13.03
2019-04-10T02:27:22.481Z,13.17
2019-04-10T02:29:52.251Z,13.14
2019-04-10T02:32:21.256Z,13.37
2019-04-10T02:34:50.691Z,13.36
2019-04-10T02:37:19.455Z,12.85
2019-04-10T02:39:52.184Z,12.50
2019-04-10T02:42:18.787Z,12.70
2019-04-10T02:44:48.353Z,12.74
2019-04-10T02:47:19.238Z,12.56
2019-04-10T02:49:49.276Z,12.72
2019-04-10T02:52:17.916Z,12.86
2019-04-10T02:54:46.570Z,13.07
2019-04-10T02:57:17.197Z,13.02
2019-04-10T02:59:46.970Z,13.07
2019-04-10T03:02:16.183Z,12.80
2019-04-10T03:04:44.924Z,12.91
2019-04-10T03:07:13.550Z,12.79
2019-04-10T03:09:56.291Z,12.54
2019-04-10T03:12:14.364Z,12.45
2019-04-10T03:14:45.227Z,12.74
2019-04-10T03:17:13.324Z,12.76
2019-04-10T03:19:41.948Z,12.59
2019-04-10T03:22:10.611Z,12.70
2019-04-10T03:24:40.131Z,12.41
2019-04-10T03:27:08.772Z,12.06
2019-04-10T03:29:38.003Z,12.69
2019-04-10T03:32:28.508Z,12.49
2019-04-10T03:34:56.723Z,12.41
2019-04-10T03:37:26.439Z,12.42
2019-04-10T03:39:55.296Z,12.76
2019-04-10T03:42:23.909Z,12.59
2019-04-10T03:44:52.527Z,12.52
2019-04-10T03:47:21.335Z,12.61
2019-04-10T03:49:49.963Z,12.89
2019-04-10T03:52:19.032Z,12.93
2019-04-10T03:54:48.145Z,13.00
2019-04-10T03:57:16.830Z,12.69
2019-04-10T03:59:45.544Z,12.85
2019-04-10T04:02:14.206Z,12.98
2019-04-10T04:04:43.815Z,13.06
2019-04-10T04:07:13.393Z,13.05
2019-04-10T04:09:42.089Z,13.17
2019-04-10T04:12:10.718Z,13.02
2019-04-10T04:14:39.395Z,13.02
2019-04-10T04:17:08.181Z,13.07
2019-04-10T04:19:37.907Z,12.95
2019-04-10T04:22:06.690Z,12.98
2019-04-10T04:24:35.751Z,13.10
2019-04-10T04:27:04.811Z,13.24
2019-04-10T04:29:34.426Z,13.25
2019-04-10T04:32:03.122Z,13.30
2019-04-10T04:34:31.736Z,13.41
2019-04-10T04:37:00.453Z,13.46
2019-04-10T04:39:30.494Z,13.46
2019-04-10T04:41:59.496Z,13.40
2019-04-10T04:44:29.206Z,12.89
2019-04-10T04:46:58.895Z,12.46
2019-04-10T04:49:28.377Z,11.67
2019-04-10T04:51:58.133Z,12.51
2019-04-10T04:54:26.833Z,12.86
2019-04-10T04:56:56.154Z,12.91
2019-04-10T04:59:24.758Z,13.12
2019-04-10T05:01:53.507Z,13.03
2019-04-10T05:04:22.919Z,13.26
2019-04-10T05:06:52.144Z,13.06
2019-04-10T05:09:29.859Z,13.17
2019-04-10T05:11:51.152Z,13.37
2019-04-10T05:14:19.784Z,13.13
2019-04-10T05:16:48.451Z,13.12
2019-04-10T05:19:17.403Z,13.37
2019-04-10T05:21:45.994Z,13.48
2019-04-10T05:24:15.700Z,13.45
2019-04-10T05:26:44.842Z,13.50
2019-04-10T05:29:13.480Z,13.58
2019-04-10T05:31:42.666Z,13.56
2019-04-10T05:34:11.508Z,13.06
2019-04-10T05:36:40.160Z,13.00
2019-04-10T05:39:08.826Z,12.86
2019-04-10T05:41:37.885Z,13.11
2019-04-10T05:44:07.446Z,12.98
2019-04-10T05:46:36.753Z,13.37
2019-04-10T05:49:06.664Z,13.47
2019-04-10T05:51:35.411Z,13.06
2019-04-10T05:54:04.063Z,12.88
2019-04-10T05:56:32.692Z,13.18
2019-04-10T05:59:01.321Z,13.57
2019-04-10T06:01:35.480Z,13.68
2019-04-10T06:04:00.915Z,13.64
2019-04-10T06:06:30.626Z,13.77
2019-04-10T06:09:00.456Z,13.92
2019-04-10T06:11:29.105Z,13.78
2019-04-10T06:13:59.049Z,13.87
2019-04-10T06:16:28.179Z,13.87
2019-04-10T06:18:57.601Z,13.79
2019-04-10T06:21:27.278Z,13.77
2019-04-10T06:23:56.844Z,13.26
2019-04-10T06:26:28.043Z,13.59
2019-04-10T06:28:56.864Z,13.81
2019-04-10T06:31:25.574Z,13.91
2019-04-10T06:33:54.196Z,13.94
2019-04-10T06:36:22.827Z,13.99
2019-04-10T06:38:51.570Z,14.03
2019-04-10T06:41:20.205Z,13.79
2019-04-10T06:43:49.655Z,13.93
2019-04-10T06:46:18.371Z,13.94
2019-04-10T07:01:15.230Z,14.80
2019-04-10T07:03:51.877Z,14.25
2019-04-10T07:06:19.026Z,14.18
2019-04-10T07:08:49.858Z,13.83
2019-04-10T07:11:18.090Z,13.91
2019-04-10T07:13:45.324Z,13.93
2019-04-10T07:16:14.003Z,14.04
2019-04-10T07:18:45.890Z,14.00
2019-04-10T07:21:12.970Z,13.91
2019-04-10T07:23:42.737Z,14.10
2019-04-10T07:26:14.499Z,13.60
2019-04-10T07:28:44.909Z,13.77
2019-04-10T07:31:13.033Z,13.45
2019-04-10T07:33:42.580Z,13.69
2019-04-10T07:36:12.857Z,13.84
2019-04-10T07:38:41.617Z,13.86
2019-04-10T07:41:17.091Z,13.17
2019-04-10T07:43:40.700Z,12.91
2019-04-10T07:46:09.390Z,13.29
2019-04-10T07:48:38.026Z,13.67
2019-04-10T07:51:07.009Z,13.95
2019-04-10T07:53:35.696Z,14.18
2019-04-10T07:56:07.597Z,13.69
2019-04-10T07:58:35.528Z,14.00
2019-04-10T08:01:05.232Z,13.94
2019-04-10T08:03:33.801Z,14.11
2019-04-10T08:06:02.475Z,14.05
2019-04-10T08:08:31.160Z,14.13
2019-04-10T08:10:59.790Z,14.35
2019-04-10T08:13:28.906Z,13.64
2019-04-10T08:15:58.485Z,13.48
2019-04-10T08:18:27.618Z,13.86
2019-04-10T08:20:57.288Z,14.22
2019-04-10T08:23:26.063Z,14.11
2019-04-10T08:25:55.882Z,14.42
2019-04-10T08:28:24.579Z,14.51
2019-04-10T08:30:53.242Z,15.06
2019-04-10T08:33:21.899Z,15.16
2019-04-10T08:35:50.565Z,14.98
2019-04-10T08:38:19.256Z,14.73
2019-04-10T08:40:48.232Z,14.32
2019-04-10T08:43:17.044Z,14.28
2019-04-10T08:45:49.982Z,13.96
2019-04-10T08:48:16.045Z,14.52
2019-04-10T08:50:44.672Z,14.32
2019-04-10T08:53:13.853Z,13.83
2019-04-10T08:55:42.550Z,13.53
2019-04-10T08:58:11.467Z,13.76
2019-04-10T09:00:40.702Z,13.71
2019-04-10T09:03:09.396Z,14.04
2019-04-10T09:05:38.024Z,14.36
2019-04-10T09:08:06.697Z,14.34
2019-04-10T09:10:36.566Z,14.86
2019-04-10T09:13:06.235Z,15.22
2019-04-10T09:15:36.055Z,14.69
2019-04-10T09:18:06.008Z,14.54
2019-04-10T09:20:35.114Z,14.66
2019-04-10T09:23:28.598Z,14.90
2019-04-10T09:25:35.271Z,14.89
2019-04-10T09:28:04.327Z,14.62
2019-04-10T09:30:33.934Z,14.50
2019-04-10T09:33:15.969Z,14.67
2019-04-10T09:35:33.404Z,14.74
2019-04-10T09:38:02.216Z,14.32
2019-04-10T09:40:32.006Z,14.77
2019-04-10T09:43:00.819Z,15.12
2019-04-10T09:45:30.540Z,14.68
2019-04-10T09:47:59.985Z,14.72
2019-04-10T09:50:28.675Z,15.13
2019-04-10T09:52:57.354Z,14.67
2019-04-10T09:55:25.977Z,15.02
2019-04-10T09:57:54.613Z,15.41
2019-04-10T10:00:24.053Z,15.99
2019-04-10T10:02:52.974Z,15.38
2019-04-10T10:05:22.335Z,15.41
2019-04-10T10:07:51.159Z,15.36
2019-04-10T10:10:20.665Z,15.13
2019-04-10T10:12:50.453Z,15.39
2019-04-10T10:15:19.239Z,15.60
2019-04-10T10:17:48.826Z,15.05
2019-04-10T10:20:17.777Z,16.28
2019-04-10T10:22:47.477Z,14.67
2019-04-10T10:25:17.412Z,15.87
2019-04-10T10:27:46.867Z,16.26
2019-04-10T10:30:15.820Z,16.94
2019-04-10T10:32:45.539Z,15.77
2019-04-10T10:35:14.682Z,15.33
2019-04-10T10:37:43.402Z,15.72
2019-04-10T10:40:12.628Z,15.14
2019-04-10T10:42:41.562Z,15.64
2019-04-10T10:45:10.760Z,16.49
2019-04-10T10:47:40.367Z,15.88
2019-04-10T10:50:09.783Z,16.07
2019-04-10T10:52:39.649Z,15.33
2019-04-10T10:55:09.737Z,16.01
2019-04-10T10:57:39.455Z,15.86
2019-04-10T11:00:11.469Z,16.30
2019-04-10T11:02:38.996Z,17.03
2019-04-10T11:05:08.806Z,17.26
2019-04-10T11:07:38.897Z,16.41
2019-04-10T11:10:08.489Z,17.14
2019-04-10T11:12:38.422Z,16.95
2019-04-10T11:15:07.848Z,16.26
2019-04-10T11:17:38.460Z,16.16
2019-04-10T11:20:10.048Z,16.97
2019-04-10T11:22:39.735Z,16.77
2019-04-10T11:25:08.742Z,16.45
2019-04-10T11:27:37.400Z,15.76
2019-04-10T11:30:08.398Z,15.06
2019-04-10T11:32:38.240Z,16.34
2019-04-10T11:35:07.767Z,16.18
2019-04-10T11:37:43.831Z,15.71
2019-04-10T11:40:08.833Z,16.35
2019-04-10T11:42:39.759Z,16.99
2019-04-10T11:45:10.676Z,16.57
2019-04-10T11:47:39.590Z,16.54
2019-04-10T11:50:13.506Z,16.17
2019-04-10T11:52:46.601Z,15.84
2019-04-10T11:55:15.964Z,15.62
2019-04-10T11:57:41.961Z,16.53
2019-04-10T12:02:47.030Z,16.34
2019-04-10T12:05:18.513Z,16.80
2019-04-10T12:08:27.699Z,17.70
2019-04-10T12:12:44.061Z,16.95
2019-04-10T12:15:12.688Z,17.42
2019-04-10T12:17:42.929Z,17.56
2019-04-10T12:20:13.096Z,16.92
2019-04-10T12:22:41.794Z,16.79
2019-04-10T12:25:12.317Z,16.65
2019-04-10T12:27:41.219Z,16.87
2019-04-10T12:30:13.424Z,17.51
2019-04-10T12:32:43.079Z,17.17
2019-04-10T12:35:11.710Z,16.56
2019-04-10T12:37:41.242Z,16.47
2019-04-10T12:40:10.146Z,16.97
2019-04-10T12:42:38.820Z,16.56
2019-04-10T12:45:08.291Z,16.42
2019-04-10T12:47:37.733Z,16.26
2019-04-10T12:50:08.191Z,16.54
2019-04-10T12:52:36.841Z,15.89
2019-04-10T12:55:06.369Z,15.27
2019-04-10T12:57:35.039Z,14.66
2019-04-10T13:00:06.750Z,15.73
2019-04-10T13:02:36.463Z,15.85
2019-04-10T13:05:07.241Z,16.34
2019-04-10T13:07:36.008Z,16.14
2019-04-10T13:10:08.707Z,16.31
2019-04-10T13:12:37.695Z,16.24
2019-04-10T13:15:08.159Z,15.62
2019-04-10T13:17:36.816Z,15.95
2019-04-10T13:20:11.209Z,16.26
2019-04-10T13:22:40.206Z,16.61
2019-04-10T13:25:10.264Z,16.71
2019-04-10T13:27:39.142Z,15.68
2019-04-10T13:30:12.134Z,16.02
2019-04-10T13:32:40.439Z,15.74
2019-04-10T13:35:10.352Z,16.01
2019-04-10T13:37:38.992Z,15.89
2019-04-10T13:40:07.882Z,16.33
2019-04-10T13:42:37.146Z,15.33
2019-04-10T13:45:07.987Z,16.05
2019-04-10T13:47:36.711Z,15.76
2019-04-10T13:50:07.193Z,15.69
2019-04-10T13:52:38.505Z,16.33
2019-04-10T13:55:08.860Z,16.41
2019-04-10T13:57:39.192Z,16.66
2019-04-10T14:00:09.707Z,16.16
2019-04-10T14:02:39.514Z,15.54
2019-04-10T14:05:11.504Z,16.31
2019-04-10T14:07:40.338Z,15.55
2019-04-10T14:10:10.391Z,16.00
2019-04-10T14:12:39.214Z,15.70
2019-04-10T14:15:08.158Z,15.82
2019-04-10T14:17:37.616Z,15.33
2019-04-10T14:20:07.046Z,15.13
2019-04-10T14:22:37.902Z,15.81
2019-04-10T14:25:09.624Z,15.72
2019-04-10T14:27:38.558Z,15.90
2019-04-10T14:30:11.306Z,16.24
2019-04-10T14:32:40.072Z,16.47
2019-04-10T14:35:09.959Z,16.42
2019-04-10T14:37:38.708Z,16.49
2019-04-10T14:40:10.241Z,15.75
2019-04-10T14:42:38.881Z,16.26
2019-04-10T14:45:08.902Z,15.93
2019-04-10T14:47:37.725Z,15.93
2019-04-10T14:50:07.543Z,14.86
2019-04-10T14:52:37.127Z,15.74
2019-04-10T14:55:06.238Z,15.54
2019-04-10T14:57:35.091Z,15.62
2019-04-10T15:00:06.398Z,16.07
2019-04-10T15:02:35.137Z,16.05
2019-04-10T15:05:05.745Z,16.10
2019-04-10T15:07:35.200Z,15.91
2019-04-10T15:10:04.321Z,15.46
2019-04-10T15:12:32.953Z,16.05
2019-04-10T15:15:01.776Z,16.51
2019-04-10T15:17:30.844Z,15.73
2019-04-10T15:20:00.651Z,16.49
2019-04-10T15:22:29.330Z,16.71
2019-04-10T15:24:57.969Z,16.65
2019-04-10T15:27:27.117Z,15.99
2019-04-10T15:29:56.784Z,16.41
2019-04-10T15:32:25.464Z,16.85
2019-04-10T15:34:54.166Z,16.60
2019-04-10T15:37:22.906Z,15.96
2019-04-10T15:39:51.873Z,15.09
2019-04-10T15:42:21.718Z,15.72
2019-04-10T15:44:50.379Z,16.10
2019-04-10T15:47:22.320Z,15.74
2019-04-10T15:49:49.455Z,16.10
2019-04-10T15:52:18.156Z,15.86
2019-04-10T15:54:47.880Z,16.32
2019-04-10T15:57:16.530Z,16.40
2019-04-10T15:59:46.293Z,15.88
2019-04-10T16:02:15.394Z,16.03
2019-04-10T16:04:44.439Z,16.47
2019-04-10T16:07:14.090Z,16.75
2019-04-10T16:09:47.392Z,16.82
2019-04-10T16:12:14.804Z,16.97
2019-04-10T16:14:44.453Z,17.04
2019-04-10T16:17:26.950Z,17.02
2019-04-10T16:20:00.156Z,16.71
2019-04-10T16:22:31.211Z,16.77
2019-04-10T16:25:01.605Z,17.05
